Düsseldorf International Airport EDDL

Flugplatz Daten

Name: Düsseldorf International Airport

Ident: EDDL

Lat: 51,28950119

Long: 6,7667799

Platzhöhe: 147 ft

IataCode: DUS

City: Düsseldorf

Homepage: http://www.duesseldorf-international.de/

Metar

2021/10/16 18:20
EDDL 161820Z 08003KT 040V120 CAVOK 06/05 Q1021 NOSIG

Taf

2021/10/16 18:28
TAF EDDL 161700Z 1618/1724 VRB03KT CAVOK
BECMG 1703/1706 16006KT
Gewünschte Webcam nicht vorhanden? Dann fügen Sie eine hinzu. Sie wird dann so schnell wie möglich freigeschaltet
Url: Title: